createdAt,value
2022-09-12T00:00:14.658Z,71.64
2022-09-12T00:01:14.849Z,71.53
2022-09-12T00:02:14.848Z,71.64
2022-09-12T00:03:14.887Z,71.64
2022-09-12T00:04:14.962Z,71.64
2022-09-12T00:05:15.040Z,71.73
2022-09-12T00:06:18.170Z,71.64
2022-09-12T00:07:15.210Z,71.53
2022-09-12T00:08:15.256Z,71.53
2022-09-12T00:09:15.340Z,71.44
2022-09-12T00:10:15.419Z,71.53
2022-09-12T00:11:15.519Z,71.44
2022-09-12T00:12:15.619Z,71.53
2022-09-12T00:13:15.667Z,71.53
2022-09-12T00:14:15.759Z,71.53
2022-09-12T00:15:15.834Z,71.53
2022-09-12T00:16:15.964Z,71.53
2022-09-12T00:17:16.000Z,71.53
2022-09-12T00:18:16.059Z,71.44
2022-09-12T00:19:16.141Z,71.44
2022-09-12T00:20:16.235Z,71.44
2022-09-12T00:21:16.316Z,71.33
2022-09-12T00:22:16.416Z,71.23
2022-09-12T00:23:16.478Z,71.23
2022-09-12T00:24:16.571Z,71.23
2022-09-12T00:25:16.654Z,71.33
2022-09-12T00:26:16.730Z,71.26
2022-09-12T00:27:16.836Z,71.26
2022-09-12T00:28:16.886Z,71.16
2022-09-12T00:29:16.968Z,71.26
2022-09-12T00:30:17.047Z,71.26
2022-09-12T00:31:17.174Z,71.37
2022-09-12T00:32:17.233Z,71.37
2022-09-12T00:33:17.312Z,71.47
2022-09-12T00:34:17.390Z,71.47
2022-09-12T00:35:17.464Z,71.37
2022-09-12T00:36:17.555Z,71.37
2022-09-12T00:37:17.646Z,71.16
2022-09-12T00:38:17.728Z,71.06
2022-09-12T00:39:17.821Z,71.16
2022-09-12T00:40:17.957Z,71.16
2022-09-12T00:41:18.011Z,71.16
2022-09-12T00:42:18.109Z,70.96
2022-09-12T00:43:18.184Z,70.86
2022-09-12T00:44:18.277Z,71.06
2022-09-12T00:45:18.325Z,70.96
2022-09-12T00:46:18.411Z,70.96
2022-09-12T00:47:18.714Z,70.89
2022-09-12T00:48:18.599Z,70.79
2022-09-12T00:49:18.688Z,70.79
2022-09-12T00:50:18.780Z,70.89
2022-09-12T00:51:18.847Z,70.89
2022-09-12T00:52:18.951Z,71.09
2022-09-12T00:53:19.042Z,71.20
2022-09-12T00:54:19.131Z,71.30
2022-09-12T00:55:19.198Z,71.30
2022-09-12T00:56:19.292Z,71.20
2022-09-12T00:57:19.392Z,71.30
2022-09-12T00:58:19.472Z,71.40
2022-09-12T00:59:19.556Z,71.60
2022-09-12T01:00:19.624Z,71.50
2022-09-12T01:01:19.805Z,71.60
2022-09-12T01:02:19.798Z,71.70
2022-09-12T01:03:19.876Z,71.80
2022-09-12T01:04:19.945Z,71.60
2022-09-12T01:05:20.036Z,71.50
2022-09-12T01:06:20.115Z,71.50
2022-09-12T01:07:20.241Z,71.50
2022-09-12T01:08:20.284Z,71.60
2022-09-12T01:09:20.370Z,71.60
2022-09-12T01:10:20.463Z,71.50
2022-09-12T01:11:20.540Z,71.50
2022-09-12T01:12:20.635Z,71.40
2022-09-12T01:13:20.733Z,71.09
2022-09-12T01:14:20.817Z,71.09
2022-09-12T01:15:20.894Z,71.03
2022-09-12T01:16:20.990Z,71.23
2022-09-12T01:17:21.092Z,71.13
2022-09-12T01:18:21.168Z,70.92
2022-09-12T01:19:21.242Z,70.72
2022-09-12T01:20:22.303Z,70.62
2022-09-12T01:21:21.409Z,70.62
2022-09-12T01:22:21.500Z,70.72
2022-09-12T01:23:21.628Z,70.83
2022-09-12T01:24:21.645Z,70.92
2022-09-12T01:25:21.720Z,70.92
2022-09-12T01:26:21.803Z,70.83
2022-09-12T01:27:21.917Z,70.83
2022-09-12T01:28:21.995Z,70.92
2022-09-12T01:29:22.070Z,71.03
2022-09-12T01:30:22.159Z,70.92
2022-09-12T01:31:22.246Z,70.92
2022-09-12T01:32:22.372Z,71.03
2022-09-12T01:33:22.408Z,71.03
2022-09-12T01:34:22.484Z,70.92
2022-09-12T01:35:22.573Z,70.92
2022-09-12T01:36:22.652Z,70.92
2022-09-12T01:37:22.763Z,70.83
2022-09-12T01:38:22.798Z,70.83
2022-09-12T01:39:22.881Z,70.72
2022-09-12T01:40:22.957Z,70.72
2022-09-12T01:41:23.035Z,70.62
2022-09-12T01:42:23.153Z,70.52
2022-09-12T01:43:23.234Z,70.52
2022-09-12T01:44:23.303Z,70.42
2022-09-12T01:45:23.425Z,70.21
2022-09-12T01:46:23.453Z,70.11
2022-09-12T01:47:23.590Z,70.11
2022-09-12T01:48:23.621Z,69.91
2022-09-12T01:49:23.703Z,70.01
2022-09-12T01:50:23.785Z,69.95
2022-09-12T01:51:23.859Z,70.04
2022-09-12T01:52:23.960Z,70.04
2022-09-12T01:53:24.036Z,70.04
2022-09-12T01:54:24.110Z,70.04
2022-09-12T01:55:24.194Z,69.95
2022-09-12T01:56:24.267Z,69.84
2022-09-12T01:57:24.363Z,69.95
2022-09-12T01:58:24.450Z,70.15
2022-09-12T01:59:24.525Z,69.98
2022-09-12T02:00:24.611Z,69.98
2022-09-12T02:01:24.762Z,69.98
2022-09-12T02:02:24.838Z,70.08
2022-09-12T02:03:24.879Z,70.18
2022-09-12T02:04:24.955Z,70.38
2022-09-12T02:05:25.035Z,70.48
2022-09-12T02:06:25.202Z,70.59
2022-09-12T02:07:25.219Z,70.48
2022-09-12T02:08:25.304Z,70.59
2022-09-12T02:09:25.375Z,70.59
2022-09-12T02:10:29.105Z,70.68
2022-09-12T02:11:25.553Z,70.68
2022-09-12T02:12:25.647Z,70.68
2022-09-12T02:13:25.721Z,70.79
2022-09-12T02:14:25.799Z,70.79
2022-09-12T02:15:25.868Z,70.89
2022-09-12T02:16:25.965Z,70.79
2022-09-12T02:17:26.033Z,70.79
2022-09-12T02:18:26.104Z,70.68
2022-09-12T02:19:26.191Z,70.68
2022-09-12T02:20:46.948Z,70.68
2022-09-12T02:21:26.356Z,70.68
2022-09-12T02:22:26.458Z,70.59
2022-09-12T02:23:26.526Z,70.59
2022-09-12T02:24:26.616Z,70.38
2022-09-12T02:25:26.702Z,70.38
2022-09-12T02:26:26.776Z,70.38
2022-09-12T02:27:26.882Z,70.18
2022-09-12T02:28:26.918Z,70.08
2022-09-12T02:29:26.995Z,70.18
2022-09-12T02:30:27.084Z,69.98
2022-09-12T02:31:27.159Z,69.87
2022-09-12T02:32:27.252Z,69.87
2022-09-12T02:33:27.325Z,69.98
2022-09-12T02:34:27.409Z,70.01
2022-09-12T02:35:27.487Z,69.91
2022-09-12T02:36:27.567Z,69.81
2022-09-12T02:37:27.676Z,69.70
2022-09-12T02:38:27.726Z,69.70
2022-09-12T02:39:27.802Z,69.81
2022-09-12T02:40:27.888Z,69.81
2022-09-12T02:41:27.977Z,69.91
2022-09-12T02:42:28.075Z,69.91
2022-09-12T02:43:28.144Z,69.91
2022-09-12T02:44:28.229Z,69.91
2022-09-12T02:45:28.353Z,70.01
2022-09-12T02:46:28.395Z,70.01
2022-09-12T02:47:28.518Z,70.01
2022-09-12T02:48:28.556Z,70.01
2022-09-12T02:49:28.635Z,70.01
2022-09-12T02:50:28.709Z,70.11
2022-09-12T02:51:28.797Z,70.11
2022-09-12T02:52:28.896Z,70.11
2022-09-12T02:53:28.977Z,70.21
2022-09-12T02:54:29.050Z,70.21
2022-09-12T02:55:29.126Z,70.21
2022-09-12T02:56:29.201Z,70.21
2022-09-12T02:57:29.295Z,70.11
2022-09-12T02:58:29.373Z,70.01
2022-09-12T02:59:29.448Z,69.91
2022-09-12T03:00:29.524Z,69.91
2022-09-12T03:01:29.650Z,70.01
2022-09-12T03:02:29.753Z,70.01
2022-09-12T03:03:29.785Z,70.01
2022-09-12T03:04:29.863Z,70.11
2022-09-12T03:05:29.939Z,70.14
2022-09-12T03:06:30.020Z,70.04
2022-09-12T03:07:30.126Z,70.04
2022-09-12T03:08:30.163Z,69.91
2022-09-12T03:09:30.251Z,69.94
2022-09-12T03:10:30.342Z,70.04
2022-09-12T03:11:30.417Z,70.04
2022-09-12T03:12:30.511Z,70.04
2022-09-12T03:13:30.600Z,70.11
2022-09-12T03:14:30.672Z,70.11
2022-09-12T03:15:30.763Z,70.11
2022-09-12T03:16:30.870Z,70.01
2022-09-12T03:17:30.937Z,69.91
2022-09-12T03:18:31.012Z,69.81
2022-09-12T03:19:31.098Z,69.70
2022-09-12T03:20:31.174Z,69.60
2022-09-12T03:21:31.252Z,69.60
2022-09-12T03:22:31.351Z,69.50
2022-09-12T03:23:31.404Z,69.30
2022-09-12T03:24:31.479Z,69.09
2022-09-12T03:25:31.563Z,68.92
2022-09-12T03:26:31.641Z,68.92
2022-09-12T03:27:31.730Z,68.92
2022-09-12T03:28:31.822Z,68.92
2022-09-12T03:29:31.909Z,68.72
2022-09-12T03:30:32.027Z,68.82
2022-09-12T03:31:32.074Z,69.02
2022-09-12T03:32:32.130Z,69.13
2022-09-12T03:33:32.228Z,69.33
2022-09-12T03:34:32.300Z,69.33
2022-09-12T03:35:32.380Z,69.23
2022-09-12T03:36:32.468Z,69.23
2022-09-12T03:37:32.556Z,69.23
2022-09-12T03:38:32.633Z,69.23
2022-09-12T03:39:32.712Z,69.26
2022-09-12T03:40:32.802Z,69.36
2022-09-12T03:41:32.882Z,69.36
2022-09-12T03:42:32.991Z,69.46
2022-09-12T03:43:33.034Z,69.57
2022-09-12T03:44:33.118Z,69.67
2022-09-12T03:45:33.259Z,69.67
2022-09-12T03:46:33.271Z,69.77
2022-09-12T03:47:33.571Z,69.67
2022-09-12T03:48:33.459Z,69.77
2022-09-12T03:49:33.528Z,69.77
2022-09-12T03:50:33.628Z,69.77
2022-09-12T03:51:33.733Z,69.67
2022-09-12T03:52:33.793Z,69.67
2022-09-12T03:53:33.827Z,69.77
2022-09-12T03:54:33.905Z,69.67
2022-09-12T03:55:33.991Z,69.77
2022-09-12T03:56:34.076Z,69.77
2022-09-12T03:57:34.168Z,69.67
2022-09-12T03:58:34.244Z,69.67
2022-09-12T03:59:34.329Z,69.77
2022-09-12T04:00:34.405Z,69.77
2022-09-12T04:01:34.506Z,69.77
2022-09-12T04:02:34.619Z,69.77
2022-09-12T04:03:34.651Z,69.77
2022-09-12T04:04:34.730Z,69.67
2022-09-12T04:05:34.825Z,69.57
2022-09-12T04:06:34.900Z,69.67
2022-09-12T04:07:34.994Z,69.57
2022-09-12T04:08:35.095Z,69.46
2022-09-12T04:09:35.146Z,69.46
2022-09-12T04:10:35.237Z,69.16
2022-09-12T04:11:35.333Z,69.49
2022-09-12T04:12:35.449Z,69.49
2022-09-12T04:13:35.500Z,69.49
2022-09-12T04:14:35.578Z,69.49
2022-09-12T04:15:35.662Z,69.49
2022-09-12T04:16:35.893Z,69.60
2022-09-12T04:17:35.863Z,69.49
2022-09-12T04:18:35.899Z,69.63
2022-09-12T04:19:35.980Z,69.63
2022-09-12T04:20:36.056Z,69.53
2022-09-12T04:21:36.139Z,69.53
2022-09-12T04:22:36.235Z,69.63
2022-09-12T04:23:36.327Z,69.84
2022-09-12T04:24:36.402Z,69.93
2022-09-12T04:25:36.493Z,70.04
2022-09-12T04:26:36.627Z,70.14
2022-09-12T04:27:36.686Z,70.24
2022-09-12T04:28:36.771Z,70.45
2022-09-12T04:29:36.955Z,70.55
2022-09-12T04:30:37.006Z,70.55
2022-09-12T04:31:37.027Z,70.45
2022-09-12T04:32:37.120Z,70.45
2022-09-12T04:33:37.197Z,70.45
2022-09-12T04:34:37.266Z,70.45
2022-09-12T04:35:37.358Z,70.45
2022-09-12T04:36:37.424Z,70.34
2022-09-12T04:37:37.528Z,70.24
2022-09-12T04:38:37.608Z,70.14
2022-09-12T04:39:37.738Z,70.14
2022-09-12T04:40:37.779Z,70.14
2022-09-12T04:41:37.931Z,70.04
2022-09-12T04:42:37.961Z,69.84
2022-09-12T04:43:38.000Z,69.73
2022-09-12T04:44:38.083Z,69.73
2022-09-12T04:45:38.196Z,69.73
2022-09-12T04:46:38.243Z,69.63
2022-09-12T04:47:38.371Z,69.63
2022-09-12T04:48:38.407Z,69.63
2022-09-12T04:49:38.562Z,69.53
2022-09-12T06:21:12.844Z,74.73
2022-09-12T06:22:13.807Z,74.69
2022-09-12T06:23:13.920Z,74.90
2022-09-12T06:24:14.051Z,75.00
2022-09-12T06:25:14.008Z,74.90
2022-09-12T06:26:14.092Z,74.76
2022-09-12T06:27:14.207Z,74.76
2022-09-12T06:28:14.258Z,74.66
2022-09-12T06:29:14.324Z,74.66
2022-09-12T06:30:14.397Z,74.62
2022-09-12T06:31:14.486Z,74.52
2022-09-12T06:32:14.587Z,74.52
2022-09-12T06:33:14.663Z,74.42
2022-09-12T06:34:14.745Z,74.32
2022-09-12T06:35:14.845Z,74.28
2022-09-12T06:36:14.914Z,74.28
2022-09-12T06:37:15.010Z,74.28
2022-09-12T06:38:15.092Z,74.28
2022-09-12T06:39:15.212Z,74.28
2022-09-12T06:40:15.264Z,74.28
2022-09-12T06:41:15.356Z,74.28
2022-09-12T06:42:15.395Z,74.25
2022-09-12T06:43:15.495Z,74.25
2022-09-12T06:44:15.565Z,74.25
2022-09-12T06:45:15.701Z,74.25
2022-09-12T06:46:15.810Z,74.25
2022-09-12T06:47:15.819Z,74.25
2022-09-12T06:48:15.900Z,74.25
2022-09-12T06:49:16.007Z,74.25
2022-09-12T06:50:16.064Z,74.25
2022-09-12T06:51:16.153Z,74.21
2022-09-12T06:52:16.267Z,74.21
2022-09-12T08:02:16.556Z,78.12
2022-09-12T08:03:12.899Z,78.02
2022-09-12T08:04:12.966Z,78.19
2022-09-12T08:05:13.042Z,78.19
2022-09-12T08:06:13.117Z,77.98
2022-09-12T08:07:13.226Z,77.74
2022-09-12T08:08:13.270Z,77.23
2022-09-12T08:09:13.357Z,77.13
2022-09-12T08:10:13.505Z,76.99
2022-09-12T08:11:13.516Z,76.89
2022-09-12T08:12:13.614Z,76.59
2022-09-12T08:13:13.673Z,76.45
2022-09-12T08:14:13.753Z,76.34
2022-09-12T08:15:13.847Z,76.14
2022-09-12T08:16:14.038Z,76.14
2022-09-12T08:17:14.021Z,76.04
2022-09-12T08:18:14.060Z,76.01
2022-09-12T08:19:14.134Z,75.90
2022-09-12T08:20:14.214Z,75.90
2022-09-12T08:21:14.311Z,76.01
2022-09-12T08:22:14.417Z,76.01
2022-09-12T08:23:14.430Z,75.70
2022-09-12T08:24:14.512Z,75.46
2022-09-12T08:25:14.599Z,75.36
2022-09-12T08:26:14.705Z,74.65
2022-09-12T08:27:14.771Z,74.55
2022-09-12T08:28:14.808Z,74.44
2022-09-12T08:29:14.896Z,74.34
2022-09-12T08:30:14.984Z,74.31
2022-09-12T08:31:15.227Z,74.31
2022-09-12T08:32:15.176Z,74.31
2022-09-12T08:33:15.243Z,74.31
2022-09-12T08:34:15.382Z,74.31
2022-09-12T08:35:15.447Z,74.51
2022-09-12T08:36:15.493Z,74.41
2022-09-12T08:37:15.590Z,74.31
2022-09-12T08:38:15.672Z,74.21
2022-09-12T08:39:15.795Z,74.07
2022-09-12T08:40:15.879Z,74.17
2022-09-12T08:41:15.914Z,74.17
2022-09-12T08:42:16.012Z,74.17
2022-09-12T08:43:16.085Z,74.07
2022-09-12T08:44:16.155Z,73.97
2022-09-12T08:45:16.230Z,74.07
2022-09-12T08:46:16.389Z,74.38
2022-09-12T08:47:16.414Z,74.24
2022-09-12T08:48:16.444Z,74.54
2022-09-12T08:49:16.535Z,74.54
2022-09-12T08:50:16.589Z,74.44
2022-09-12T08:51:16.674Z,74.34
2022-09-12T08:52:16.765Z,74.30
2022-09-12T08:53:16.872Z,74.21
2022-09-12T08:54:16.965Z,74.21
2022-09-12T08:55:17.055Z,74.10
2022-09-12T08:56:17.166Z,73.90
2022-09-12T08:57:17.421Z,73.80
2022-09-12T08:58:17.303Z,73.70
2022-09-12T08:59:17.384Z,73.29
2022-09-12T09:00:17.461Z,73.09
2022-09-12T09:01:17.612Z,72.99
2022-09-12T09:02:17.680Z,72.85
2022-09-12T09:03:17.702Z,72.85
2022-09-12T09:04:17.786Z,72.85
2022-09-12T09:05:17.902Z,72.85
2022-09-12T09:06:17.979Z,72.75
2022-09-12T09:07:18.041Z,72.61
2022-09-12T09:08:18.110Z,72.61
2022-09-12T09:09:18.159Z,72.52
2022-09-12T09:10:18.235Z,72.52
2022-09-12T09:11:18.336Z,72.41
2022-09-12T09:12:18.424Z,72.41
2022-09-12T09:13:18.500Z,72.31
2022-09-12T09:14:18.577Z,72.31
2022-09-12T09:15:18.672Z,72.41
2022-09-12T09:16:18.943Z,72.52
2022-09-12T09:17:18.881Z,72.52
2022-09-12T09:18:19.002Z,72.41
2022-09-12T09:19:19.030Z,72.31
2022-09-12T09:20:19.435Z,72.21
2022-09-12T09:21:19.160Z,71.70
2022-09-12T09:22:20.094Z,71.60
2022-09-12T09:40:35.606Z,74.10
2022-09-12T09:41:36.735Z,74.21
2022-09-12T09:44:34.044Z,73.76
2022-09-12T09:45:35.155Z,73.76
2022-09-12T09:46:35.240Z,73.97
2022-09-12T09:47:35.240Z,74.07
2022-09-12T09:48:35.291Z,73.97
2022-09-12T09:49:35.396Z,73.53
2022-09-12T09:50:35.491Z,73.12
2022-09-12T09:51:35.551Z,72.92
2022-09-12T09:52:35.630Z,72.81
2022-09-12T09:53:35.705Z,72.52
2022-09-12T09:54:35.932Z,72.31
2022-09-12T09:55:35.967Z,72.08
2022-09-12T09:56:35.988Z,71.77
2022-09-12T09:57:36.099Z,71.67
2022-09-12T09:58:36.245Z,71.37
2022-09-12T09:59:36.427Z,71.26
2022-09-12T10:00:37.421Z,71.16
2022-09-12T10:01:36.342Z,70.93
2022-09-12T10:02:38.147Z,70.93
2022-09-12T10:03:36.515Z,70.83
2022-09-12T10:04:41.031Z,70.73
2022-09-12T10:05:36.725Z,70.93
2022-09-12T10:06:36.777Z,71.13
2022-09-12T10:07:36.883Z,71.13
2022-09-12T10:08:36.972Z,71.03
2022-09-12T10:09:37.065Z,71.13
2022-09-12T10:10:37.144Z,71.23
2022-09-12T10:11:37.214Z,71.33
2022-09-12T10:12:37.311Z,71.33
2022-09-12T10:13:37.384Z,71.40
2022-09-12T10:14:37.473Z,71.30
2022-09-12T10:15:37.604Z,71.30
2022-09-12T10:16:37.621Z,71.40
2022-09-12T10:17:37.709Z,71.50
2022-09-12T10:18:37.780Z,71.40
2022-09-12T10:19:37.864Z,71.40
2022-09-12T10:20:37.942Z,71.40
2022-09-12T10:21:41.078Z,71.60
2022-09-12T10:22:38.452Z,71.80
2022-09-12T10:23:38.154Z,71.80
2022-09-12T10:24:38.302Z,71.91
2022-09-12T10:25:38.379Z,71.91
2022-09-12T10:26:38.433Z,71.80
2022-09-12T10:27:38.511Z,71.80
2022-09-12T10:28:38.592Z,71.97
2022-09-12T10:29:38.686Z,72.08
2022-09-12T10:30:38.799Z,72.08
2022-09-12T10:31:38.836Z,71.97
2022-09-12T10:32:38.915Z,71.97
2022-09-12T10:33:39.020Z,71.97
2022-09-12T10:34:39.120Z,72.28
2022-09-12T10:35:39.164Z,72.28
2022-09-12T10:36:39.252Z,72.08
2022-09-12T10:37:39.334Z,71.94
2022-09-12T10:38:39.437Z,71.84
2022-09-12T10:39:39.651Z,71.73
2022-09-12T10:40:39.590Z,71.64
2022-09-12T10:41:39.702Z,71.64
2022-09-12T10:42:39.789Z,71.53
2022-09-12T10:43:39.878Z,71.64
2022-09-12T10:44:40.003Z,71.70
2022-09-12T10:45:40.134Z,71.70
2022-09-12T10:46:40.131Z,71.91
2022-09-12T10:47:40.225Z,71.91
2022-09-12T10:48:40.309Z,71.80
2022-09-12T10:49:40.416Z,71.60
2022-09-12T10:50:40.474Z,71.60
2022-09-12T10:51:40.565Z,71.67
2022-09-12T10:52:40.659Z,71.77
2022-09-12T10:53:40.724Z,71.87
2022-09-12T10:54:40.818Z,71.77
2022-09-12T10:55:40.901Z,71.77
2022-09-12T10:56:40.983Z,71.67
2022-09-12T10:57:41.074Z,71.53
2022-09-12T10:58:41.167Z,71.44
2022-09-12T10:59:41.462Z,71.44
2022-09-12T11:00:41.354Z,71.44
2022-09-12T11:01:41.528Z,71.03
2022-09-12T11:02:41.604Z,70.69
2022-09-12T11:03:41.711Z,70.29
2022-09-12T11:04:41.731Z,70.09
2022-09-12T11:05:41.778Z,69.99
2022-09-12T11:06:41.866Z,69.79
2022-09-12T11:07:41.936Z,69.48
2022-09-12T11:08:42.045Z,69.28
2022-09-12T11:09:42.107Z,69.08
2022-09-12T11:10:44.456Z,68.77
2022-09-12T11:11:42.228Z,68.48
2022-09-12T11:12:42.322Z,67.87
2022-09-12T11:13:42.525Z,67.57
2022-09-12T11:14:42.519Z,67.36
2022-09-12T11:15:42.667Z,67.13
2022-09-12T11:16:43.189Z,67.13
2022-09-12T11:17:42.776Z,66.73
2022-09-12T11:18:42.808Z,66.42
2022-09-12T11:19:42.911Z,66.22
2022-09-12T11:20:43.001Z,66.22
2022-09-12T11:21:43.068Z,66.42
2022-09-12T11:22:43.207Z,66.42
2022-09-12T11:23:43.238Z,66.09
2022-09-12T11:24:43.330Z,65.89
2022-09-12T11:25:43.380Z,65.59
2022-09-12T11:26:43.462Z,65.59
2022-09-12T11:27:43.535Z,65.29
2022-09-12T11:28:47.148Z,64.86
2022-09-12T11:29:43.708Z,64.65
2022-09-12T11:30:43.827Z,64.95
2022-09-12T11:31:43.873Z,65.06
2022-09-12T11:32:43.943Z,64.95
2022-09-12T11:33:44.185Z,64.75
2022-09-12T11:34:44.120Z,64.72
2022-09-12T11:35:44.206Z,64.32
2022-09-12T11:36:45.252Z,64.02
2022-09-12T11:37:44.368Z,64.22
2022-09-12T11:38:44.471Z,64.12
2022-09-12T11:39:44.600Z,63.82
2022-09-12T11:40:44.575Z,64.32
2022-09-12T11:41:44.657Z,64.52
2022-09-12T11:42:44.740Z,64.62
2022-09-12T11:43:44.906Z,64.52
2022-09-12T11:44:44.912Z,64.82
2022-09-12T11:45:45.021Z,64.89
2022-09-12T11:46:48.645Z,64.79
2022-09-12T11:47:45.193Z,64.89
2022-09-12T11:48:45.407Z,64.89
2022-09-12T11:49:45.408Z,64.59
2022-09-12T11:50:45.406Z,64.49
2022-09-12T11:51:45.490Z,64.36
2022-09-12T11:52:45.579Z,64.46
2022-09-12T11:53:45.728Z,64.66
2022-09-12T11:54:49.043Z,64.86
2022-09-12T11:55:45.841Z,64.76
2022-09-12T11:56:45.893Z,64.66
2022-09-12T11:57:45.986Z,64.46
2022-09-12T11:58:46.171Z,64.46
2022-09-12T11:59:46.216Z,64.36
2022-09-12T12:00:46.266Z,64.66
2022-09-12T12:01:48.741Z,64.96
2022-09-12T12:02:46.467Z,64.96
2022-09-12T12:03:46.656Z,65.36
2022-09-12T12:04:46.645Z,65.64
2022-09-12T12:05:46.690Z,65.53
2022-09-12T12:06:46.804Z,65.64
2022-09-12T12:07:46.873Z,65.73
2022-09-12T12:08:46.992Z,65.73
2022-09-12T12:09:47.945Z,65.53
2022-09-12T12:10:47.101Z,65.53
2022-09-12T12:11:47.170Z,65.60
2022-09-12T12:12:47.248Z,61.49
2022-09-12T12:13:47.339Z,61.88
2022-09-12T12:14:47.423Z,62.79
2022-09-12T12:15:47.595Z,62.99
2022-09-12T12:16:47.583Z,63.29
2022-09-12T12:17:47.678Z,63.36
2022-09-12T12:18:47.957Z,63.36
2022-09-12T12:19:47.852Z,63.36
2022-09-12T12:20:47.982Z,63.56
2022-09-12T12:21:48.060Z,63.56
2022-09-12T12:22:48.094Z,63.87
2022-09-12T12:23:48.153Z,63.96
2022-09-12T12:24:48.254Z,63.96
2022-09-12T12:25:48.385Z,63.87
2022-09-12T12:26:48.421Z,63.56
2022-09-12T12:27:48.524Z,63.87
2022-09-12T12:28:48.999Z,64.67
2022-09-12T12:29:48.646Z,65.27
2022-09-12T12:30:48.755Z,62.16
2022-09-12T12:31:48.823Z,62.73
2022-09-12T12:32:48.925Z,63.73
2022-09-12T12:33:49.071Z,63.64
2022-09-12T12:34:49.049Z,63.43
2022-09-12T12:35:49.185Z,63.23
2022-09-12T12:36:49.214Z,63.03
2022-09-12T12:37:49.284Z,63.03
2022-09-12T12:38:49.374Z,63.03
2022-09-12T12:39:49.491Z,63.53
2022-09-12T12:40:49.653Z,63.43
2022-09-12T12:41:49.547Z,63.33
2022-09-12T12:42:49.635Z,63.13
2022-09-12T12:43:49.713Z,63.13
2022-09-12T12:44:49.800Z,63.03
2022-09-12T12:45:50.019Z,63.13
2022-09-12T12:46:49.957Z,63.13
2022-09-12T12:47:50.036Z,63.23
2022-09-12T12:48:50.102Z,63.23
2022-09-12T12:49:50.214Z,63.03
2022-09-12T12:50:50.326Z,63.43
2022-09-12T12:51:50.364Z,64.34
2022-09-12T12:52:50.438Z,64.43
2022-09-12T12:53:50.574Z,64.34
2022-09-12T12:54:50.599Z,63.93
2022-09-12T12:55:50.707Z,64.14
2022-09-12T12:56:50.758Z,64.24
2022-09-12T12:57:50.843Z,64.31
2022-09-12T12:58:50.926Z,64.40
2022-09-12T12:59:51.009Z,64.11
2022-09-12T13:00:51.329Z,64.01
2022-09-12T13:01:54.941Z,63.81
2022-09-12T13:02:51.312Z,63.90
2022-09-12T13:03:51.321Z,64.01
2022-09-12T13:04:51.392Z,64.11
2022-09-12T13:05:51.638Z,63.90
2022-09-12T13:06:51.615Z,63.90
2022-09-12T13:07:51.696Z,63.70
2022-09-12T13:08:51.783Z,63.20
2022-09-12T13:09:51.862Z,63.10
2022-09-12T13:10:51.961Z,62.90
2022-09-12T13:11:52.011Z,62.80
2022-09-12T13:12:52.087Z,62.90
2022-09-12T13:13:52.179Z,62.90
2022-09-12T13:14:52.255Z,62.87
2022-09-12T13:16:02.969Z,62.90
2022-09-12T13:16:52.469Z,62.80
2022-09-12T13:17:52.498Z,62.60
2022-09-12T13:18:52.578Z,62.70
2022-09-12T13:20:10.646Z,62.60
2022-09-12T13:20:52.779Z,62.50
2022-09-12T13:21:52.924Z,62.50
2022-09-12T13:22:52.907Z,62.40
2022-09-12T13:23:52.950Z,62.50
2022-09-12T13:24:53.030Z,62.50
2022-09-12T13:25:53.099Z,62.60
2022-09-12T13:26:53.186Z,63.20
2022-09-12T13:27:53.272Z,63.00
2022-09-12T13:28:53.358Z,62.90
2022-09-12T13:29:53.457Z,62.80
2022-09-12T13:30:53.585Z,62.73
2022-09-12T13:31:53.602Z,62.93
2022-09-12T13:32:53.680Z,63.13
2022-09-12T13:33:53.759Z,63.43
2022-09-12T13:34:53.835Z,63.53
2022-09-12T13:35:53.925Z,63.64
2022-09-12T13:36:53.976Z,62.93
2022-09-12T13:37:54.048Z,59.79
2022-09-12T13:38:54.127Z,58.69
2022-09-12T13:39:54.307Z,57.39
2022-09-12T13:40:54.314Z,56.35
2022-09-12T13:41:54.350Z,52.34
2022-09-12T13:42:54.448Z,53.02
2022-09-12T13:43:54.542Z,52.92
2022-09-12T13:44:54.626Z,52.62
2022-09-12T13:45:54.794Z,51.79
2022-09-12T13:46:54.806Z,51.59
2022-09-12T13:47:58.512Z,52.17
2022-09-12T13:48:54.980Z,52.57
2022-09-12T13:49:55.063Z,52.77
2022-09-12T13:50:55.158Z,52.04
2022-09-12T13:51:55.242Z,51.25
2022-09-12T13:52:55.325Z,50.84
2022-09-12T13:53:55.416Z,51.64
2022-09-12T13:54:55.501Z,52.14
2022-09-12T13:55:55.625Z,52.04
2022-09-12T13:56:55.677Z,52.72
2022-09-12T13:57:55.761Z,53.12
2022-09-12T13:58:55.840Z,52.62
2022-09-12T13:59:55.921Z,51.12
2022-09-12T14:00:56.034Z,51.50
2022-09-12T14:01:56.113Z,52.09
2022-09-12T14:02:56.174Z,51.69
2022-09-12T14:03:58.810Z,51.20
2022-09-12T14:04:56.333Z,50.99
2022-09-12T14:05:56.641Z,51.09
2022-09-12T14:06:56.509Z,50.70
2022-09-12T14:07:56.596Z,51.09
2022-09-12T14:08:56.675Z,51.27
2022-09-12T14:09:56.782Z,51.47
2022-09-12T14:10:56.854Z,51.87
2022-09-12T14:11:56.903Z,51.27
2022-09-12T14:12:56.994Z,51.67
2022-09-12T14:13:57.081Z,51.07
2022-09-12T14:14:57.160Z,51.47
2022-09-12T14:15:57.334Z,51.57
2022-09-12T14:16:57.346Z,51.47
2022-09-12T14:17:57.457Z,51.97
2022-09-12T14:18:57.519Z,52.47
2022-09-12T14:19:57.612Z,52.47
2022-09-12T14:20:57.713Z,52.77
2022-09-12T14:21:57.803Z,52.27
2022-09-12T14:22:58.058Z,51.67
2022-09-12T14:23:58.000Z,51.27
2022-09-12T14:24:58.064Z,51.27
2022-09-12T14:25:58.117Z,51.17
2022-09-12T14:26:58.191Z,50.37
2022-09-12T14:27:58.265Z,50.77
2022-09-12T14:28:58.334Z,50.84
2022-09-12T14:29:58.412Z,51.04
2022-09-12T14:30:58.591Z,51.25
2022-09-12T14:31:58.574Z,51.37
2022-09-12T14:32:58.672Z,51.67
2022-09-12T14:33:58.757Z,52.17
2022-09-12T14:34:58.841Z,52.47
2022-09-12T14:35:58.966Z,52.47
2022-09-12T14:36:59.004Z,52.67
2022-09-12T14:37:59.084Z,52.67
2022-09-12T14:38:59.180Z,52.77
2022-09-12T14:39:59.370Z,52.99
2022-09-12T14:40:59.349Z,52.99
2022-09-12T14:41:59.425Z,53.09
2022-09-12T14:43:01.294Z,53.59
2022-09-12T14:43:59.576Z,53.99
2022-09-12T14:44:59.654Z,53.79
2022-09-12T14:45:59.875Z,53.59
2022-09-12T14:46:59.813Z,53.69
2022-09-12T14:47:59.897Z,53.89
2022-09-12T14:48:59.985Z,53.99
2022-09-12T14:50:00.065Z,53.30
2022-09-12T14:51:00.159Z,52.99
2022-09-12T14:52:00.211Z,52.99
2022-09-12T14:53:00.289Z,52.80
2022-09-12T14:54:00.365Z,52.39
2022-09-12T14:55:00.449Z,52.80
2022-09-12T14:56:00.596Z,53.27
2022-09-12T14:57:00.612Z,53.27
2022-09-12T14:58:00.703Z,53.17
2022-09-12T14:59:00.780Z,53.47
2022-09-12T15:00:00.864Z,53.17
2022-09-12T15:01:00.968Z,53.37
2022-09-12T15:02:01.063Z,53.77
2022-09-12T15:03:01.100Z,53.67
2022-09-12T15:04:01.282Z,53.67
2022-09-12T15:05:01.279Z,53.47
2022-09-12T15:06:01.565Z,53.77
2022-09-12T15:07:01.462Z,53.77
2022-09-12T15:08:01.521Z,53.67
2022-09-12T15:09:01.609Z,53.47
2022-09-12T15:10:01.728Z,53.57
2022-09-12T15:11:01.797Z,53.67
2022-09-12T15:12:01.862Z,53.67
2022-09-12T15:13:01.947Z,54.27
2022-09-12T15:14:02.043Z,54.57
2022-09-12T15:15:02.136Z,54.57
2022-09-12T15:16:02.280Z,54.77
2022-09-12T15:17:02.308Z,54.86
2022-09-12T15:18:06.390Z,54.97
2022-09-12T15:19:02.459Z,54.97
2022-09-12T15:20:02.718Z,54.97
2022-09-12T15:21:02.641Z,55.07
2022-09-12T15:22:02.694Z,55.19
2022-09-12T15:23:02.777Z,55.40
2022-09-12T15:24:02.856Z,55.59
2022-09-12T15:25:02.931Z,55.69
2022-09-12T15:26:03.046Z,55.69
2022-09-12T15:27:03.087Z,55.59
2022-09-12T15:28:03.257Z,55.79
2022-09-12T15:29:03.276Z,55.89
2022-09-12T15:30:03.342Z,55.82
2022-09-12T15:31:03.499Z,55.82
2022-09-12T15:32:03.496Z,55.92
2022-09-12T15:33:03.566Z,55.92
2022-09-12T15:34:03.647Z,55.72
2022-09-12T15:35:03.725Z,55.72
2022-09-12T15:36:03.826Z,55.72
2022-09-12T15:37:03.863Z,55.72
2022-09-12T15:38:03.944Z,55.92
2022-09-12T15:39:04.010Z,56.02
2022-09-12T15:40:04.136Z,56.12
2022-09-12T15:41:04.196Z,56.12
2022-09-12T15:42:04.305Z,56.22
2022-09-12T15:43:04.331Z,56.32
2022-09-12T15:44:04.418Z,56.42
2022-09-12T15:45:04.513Z,56.42
2022-09-12T15:46:04.716Z,56.52
2022-09-12T15:47:04.657Z,56.82
2022-09-12T15:48:04.778Z,57.12
2022-09-12T15:49:04.855Z,56.82
2022-09-12T15:50:04.934Z,56.72
2022-09-12T15:51:05.044Z,56.72
2022-09-12T15:52:05.090Z,56.82